Time;durP1;ratioP1;P1;durP2;ratioP2;P2;SDS_P1;SDS_P2;PMS_P1;PMS_P2;Temp;Humidity;BMP_temperature;BMP_pressure;BME280_temperature;BME280_humidity;BME280_pressure;Samples;Min_cycle;Max_cycle;Signal;HPM_P1;HPM_P2
2023/12/22 00:01:11;;;;;;;1.30;0.60;;;8.60;99.90;;;;;;5051917;28;20217;-53
2023/12/22 00:03:38;;;;;;;1.73;0.70;;;8.60;99.90;;;;;;5051638;28;20822;-54
2023/12/22 00:06:06;;;;;;;2.20;0.70;;;8.60;99.90;;;;;;5052149;28;20205;-54
2023/12/22 00:08:33;;;;;;;0.67;0.60;;;8.80;99.90;;;;;;5036518;28;20268;-53
2023/12/22 00:11:00;;;;;;;1.53;0.80;;;8.80;99.90;;;;;;5051453;28;20205;-54
2023/12/22 00:13:27;;;;;;;1.57;0.73;;;8.60;99.90;;;;;;5051088;28;20320;-52
2023/12/22 00:15:54;;;;;;;0.70;0.50;;;8.80;99.90;;;;;;5052194;28;20488;-52
2023/12/22 00:18:21;;;;;;;3.17;1.10;;;8.80;99.90;;;;;;5051986;28;20622;-53
2023/12/22 00:20:47;;;;;;;2.57;0.70;;;9.00;99.90;;;;;;5051752;28;20206;-53
2023/12/22 00:23:15;;;;;;;4.80;1.10;;;9.10;99.90;;;;;;5051187;28;20251;-53
2023/12/22 00:25:42;;;;;;;4.30;1.40;;;9.10;99.90;;;;;;5051440;28;20205;-52
2023/12/22 00:28:08;;;;;;;4.93;1.17;;;9.20;99.90;;;;;;5051492;28;20229;-52
2023/12/22 00:30:35;;;;;;;4.07;1.03;;;9.30;99.90;;;;;;5051638;28;20209;-52
2023/12/22 00:33:02;;;;;;;1.90;0.60;;;9.20;99.90;;;;;;5051645;28;20243;-52
2023/12/22 00:35:29;;;;;;;2.57;1.00;;;9.00;99.90;;;;;;5051438;28;20216;-53
2023/12/22 00:37:55;;;;;;;3.50;0.67;;;8.60;99.90;;;;;;5051568;28;20205;-52
2023/12/22 00:40:23;;;;;;;1.20;0.60;;;8.10;99.90;;;;;;5051367;28;20240;-52
2023/12/22 00:42:50;;;;;;;0.83;0.50;;;7.60;99.90;;;;;;5051635;28;20266;-51
2023/12/22 00:45:17;;;;;;;2.27;0.70;;;7.10;99.90;;;;;;5051445;28;20260;-53
2023/12/22 00:47:44;;;;;;;0.60;0.60;;;6.50;99.90;;;;;;5051501;28;20578;-52
2023/12/22 00:50:10;;;;;;;2.97;0.87;;;6.20;99.90;;;;;;5051189;28;20585;-52
2023/12/22 00:52:37;;;;;;;1.27;0.77;;;6.10;99.90;;;;;;5051404;28;20699;-52
2023/12/22 00:55:04;;;;;;;1.03;0.40;;;6.00;99.90;;;;;;5051341;28;20229;-52
2023/12/22 00:57:32;;;;;;;0.80;0.40;;;5.90;99.90;;;;;;5051509;28;20198;-52
2023/12/22 00:59:59;;;;;;;1.27;0.60;;;5.70;99.90;;;;;;5051156;28;20380;-53
2023/12/22 01:02:26;;;;;;;1.87;0.70;;;5.60;99.90;;;;;;5051458;28;20263;-53
2023/12/22 01:04:52;;;;;;;1.93;0.83;;;5.50;99.90;;;;;;5051362;28;20707;-52
2023/12/22 01:07:19;;;;;;;1.93;0.87;;;5.60;99.90;;;;;;5051151;28;20248;-52
2023/12/22 01:09:46;;;;;;;1.07;0.80;;;5.70;99.90;;;;;;5051138;28;20209;-52
2023/12/22 01:12:13;;;;;;;0.70;0.50;;;5.80;99.90;;;;;;5051230;28;20271;-52
2023/12/22 01:14:40;;;;;;;1.63;0.80;;;6.00;99.90;;;;;;5050438;28;20229;-52
2023/12/22 01:17:07;;;;;;;2.40;0.67;;;5.90;99.90;;;;;;5050754;28;20218;-53
2023/12/22 01:19:34;;;;;;;1.30;0.70;;;5.80;99.90;;;;;;5051032;28;20221;-52
2023/12/22 01:22:00;;;;;;;1.23;0.60;;;5.80;99.90;;;;;;5050833;28;20213;-53
2023/12/22 01:24:27;;;;;;;1.73;0.53;;;5.90;99.90;;;;;;5050098;28;20225;-52
2023/12/22 01:26:54;;;;;;;1.13;0.77;;;6.00;99.90;;;;;;5051077;28;20213;-53
2023/12/22 01:29:20;;;;;;;2.67;0.90;;;6.20;99.90;;;;;;5050895;28;20291;-53
2023/12/22 01:31:48;;;;;;;0.70;0.60;;;6.40;99.90;;;;;;5050744;28;20210;-52
2023/12/22 01:34:15;;;;;;;1.03;0.60;;;6.50;99.90;;;;;;5050885;28;20581;-52
2023/12/22 01:36:42;;;;;;;2.50;0.67;;;6.70;99.90;;;;;;5050817;28;20229;-54
2023/12/22 01:39:09;;;;;;;1.67;0.80;;;6.60;99.90;;;;;;5050903;28;20750;-53
2023/12/22 01:41:35;;;;;;;2.10;0.73;;;6.70;99.90;;;;;;5050678;28;20675;-53
2023/12/22 01:44:02;;;;;;;2.03;0.97;;;6.80;99.90;;;;;;5050842;28;20271;-52
2023/12/22 01:46:29;;;;;;;1.17;0.70;;;7.00;99.90;;;;;;5050592;28;20287;-52
2023/12/22 01:48:57;;;;;;;2.07;0.70;;;7.10;99.90;;;;;;5050925;28;20221;-52
2023/12/22 01:51:24;;;;;;;1.67;0.90;;;7.30;99.90;;;;;;5050312;28;20233;-52
2023/12/22 01:53:52;;;;;;;0.97;0.67;;;7.50;99.90;;;;;;5050913;28;20232;-52
2023/12/22 01:56:19;;;;;;;3.40;1.10;;;7.60;99.90;;;;;;5050905;28;20254;-53
2023/12/22 01:58:46;;;;;;;2.07;0.70;;;7.70;99.90;;;;;;5050770;28;20202;-52
2023/12/22 02:01:13;;;;;;;0.97;0.70;;;7.80;99.90;;;;;;5050352;28;20205;-53
2023/12/22 02:03:41;;;;;;;1.43;0.83;;;7.90;99.90;;;;;;5050394;28;20659;-52
2023/12/22 02:06:09;;;;;;;1.33;0.80;;;8.00;99.90;;;;;;5051039;28;20213;-53
2023/12/22 02:08:37;;;;;;;2.73;0.70;;;8.00;99.90;;;;;;5034641;28;20218;-52
2023/12/22 02:11:04;;;;;;;1.37;0.60;;;7.90;99.90;;;;;;5050340;28;20198;-52
2023/12/22 02:13:31;;;;;;;3.60;1.30;;;7.90;99.90;;;;;;5050092;28;20332;-53
2023/12/22 02:16:04;;;;;;;2.13;1.00;;;7.90;99.90;;;;;;5050404;28;20216;-52
2023/12/22 02:18:36;;;;;;;5.67;1.40;;;8.00;99.90;;;;;;5050412;28;20217;-53
2023/12/22 02:21:03;;;;;;;3.87;1.43;;;8.00;99.90;;;;;;5050162;28;20675;-52
2023/12/22 02:23:31;;;;;;;3.00;1.37;;;8.00;99.90;;;;;;5050225;28;20244;-52
2023/12/22 02:26:07;;;;;;;5.00;1.30;;;8.10;99.90;;;;;;5050314;28;20263;-52
2023/12/22 02:28:36;;;;;;;3.30;1.10;;;8.20;99.90;;;;;;5050035;28;20658;-53
2023/12/22 02:31:10;;;;;;;5.13;1.20;;;8.20;99.90;;;;;;5050271;28;20259;-53
2023/12/22 02:33:39;;;;;;;3.30;0.80;;;8.20;99.90;;;;;;5034716;28;20260;-54
2023/12/22 02:36:08;;;;;;;4.27;0.80;;;8.40;99.90;;;;;;5053391;28;20197;-53
2023/12/22 02:38:37;;;;;;;5.47;1.20;;;8.50;99.90;;;;;;5053932;28;20198;-53
2023/12/22 02:41:05;;;;;;;4.23;1.33;;;8.70;99.90;;;;;;5053610;28;20198;-53
2023/12/22 02:43:33;;;;;;;4.57;1.00;;;8.80;99.90;;;;;;5053489;28;20228;-53
2023/12/22 02:45:59;;;;;;;2.60;0.87;;;8.90;99.90;;;;;;5053851;28;20235;-53
2023/12/22 02:48:26;;;;;;;3.57;0.70;;;8.90;99.90;;;;;;5053669;28;20617;-53
2023/12/22 02:50:53;;;;;;;2.43;0.80;;;9.00;99.90;;;;;;5053492;28;20205;-53
2023/12/22 02:53:18;;;;;;;3.40;1.00;;;9.00;99.90;;;;;;5053337;28;20645;-54
2023/12/22 02:55:46;;;;;;;3.13;0.83;;;9.00;99.90;;;;;;5053432;28;20259;-52
2023/12/22 02:58:13;;;;;;;3.53;0.83;;;9.00;99.90;;;;;;5053673;28;20202;-53
2023/12/22 03:00:40;;;;;;;1.33;0.70;;;9.00;99.90;;;;;;5053718;28;20201;-53
2023/12/22 03:03:06;;;;;;;2.87;1.20;;;9.10;99.90;;;;;;5053242;28;20644;-53
2023/12/22 03:05:33;;;;;;;3.03;1.43;;;9.00;99.90;;;;;;5053210;28;20214;-52
2023/12/22 03:08:00;;;;;;;2.43;0.77;;;9.00;99.90;;;;;;5053088;28;20229;-53
2023/12/22 03:10:26;;;;;;;2.33;0.60;;;9.00;99.90;;;;;;5052865;28;20213;-53
2023/12/22 03:12:54;;;;;;;3.77;1.07;;;9.10;99.90;;;;;;5053034;28;20281;-52
2023/12/22 03:15:21;;;;;;;3.27;0.90;;;9.20;99.90;;;;;;5053103;28;20201;-53
2023/12/22 03:17:47;;;;;;;2.70;1.07;;;9.20;99.90;;;;;;5053387;28;20205;-52
2023/12/22 03:20:14;;;;;;;2.50;1.20;;;9.20;99.90;;;;;;5052893;28;20198;-54
2023/12/22 03:22:41;;;;;;;3.10;0.83;;;9.40;99.90;;;;;;5053065;28;20332;-52
2023/12/22 03:25:08;;;;;;;4.10;1.27;;;9.40;99.90;;;;;;5052783;28;20663;-53
2023/12/22 03:27:35;;;;;;;5.30;1.03;;;9.40;99.90;;;;;;5052923;28;20205;-53
2023/12/22 03:30:04;;;;;;;2.50;1.17;;;9.40;99.90;;;;;;5053694;28;20210;-52
2023/12/22 03:32:31;;;;;;;3.23;1.03;;;9.30;99.90;;;;;;5053181;28;20248;-52
2023/12/22 03:34:57;;;;;;;4.30;1.37;;;9.30;99.90;;;;;;5052822;28;20650;-53
2023/12/22 03:37:24;;;;;;;3.30;1.23;;;9.30;99.90;;;;;;5053124;28;20202;-55
2023/12/22 03:39:50;;;;;;;3.07;1.17;;;9.30;99.90;;;;;;5052587;28;20201;-54
2023/12/22 03:42:16;;;;;;;5.03;1.50;;;9.30;99.90;;;;;;5052703;28;20247;-54
2023/12/22 03:44:43;;;;;;;6.43;2.73;;;9.40;99.90;;;;;;5052631;28;20217;-54
2023/12/22 03:47:11;;;;;;;4.80;1.50;;;9.40;99.90;;;;;;5052161;28;20206;-54
2023/12/22 03:49:38;;;;;;;6.83;1.53;;;9.40;99.90;;;;;;5036463;28;20267;-54
2023/12/22 03:52:04;;;;;;;3.70;1.00;;;9.40;99.90;;;;;;5052334;28;20698;-53
2023/12/22 03:54:31;;;;;;;6.17;1.50;;;9.50;99.90;;;;;;5052040;28;20733;-52
2023/12/22 03:56:58;;;;;;;3.73;1.60;;;9.50;99.90;;;;;;5052449;28;20213;-53
2023/12/22 03:59:24;;;;;;;3.97;1.13;;;9.50;99.90;;;;;;5052183;28;20198;-54
2023/12/22 04:01:53;;;;;;;3.43;1.30;;;9.50;99.90;;;;;;5052477;28;20202;-53
2023/12/22 04:04:22;;;;;;;5.07;1.47;;;9.50;99.90;;;;;;5052050;28;20243;-52
2023/12/22 04:06:49;;;;;;;4.07;1.13;;;9.60;99.90;;;;;;5052167;28;20233;-54
2023/12/22 04:09:16;;;;;;;3.73;1.07;;;9.60;99.90;;;;;;5052293;28;20221;-54
2023/12/22 04:11:43;;;;;;;2.77;1.13;;;9.60;99.90;;;;;;5051969;28;20213;-52
2023/12/22 04:14:09;;;;;;;5.30;1.57;;;9.60;99.90;;;;;;5052278;28;20255;-55
2023/12/22 04:16:37;;;;;;;5.27;1.20;;;9.50;99.90;;;;;;5051873;28;20659;-54
2023/12/22 04:19:04;;;;;;;4.77;1.20;;;9.50;99.90;;;;;;5051532;28;20735;-55
2023/12/22 04:21:32;;;;;;;2.33;0.87;;;9.40;99.90;;;;;;5051501;28;20671;-54
2023/12/22 04:23:59;;;;;;;3.43;1.10;;;9.20;99.90;;;;;;5051729;28;20623;-55
2023/12/22 04:26:25;;;;;;;1.87;0.80;;;9.00;99.90;;;;;;5051814;28;20205;-55
2023/12/22 04:28:52;;;;;;;2.60;0.67;;;8.80;99.90;;;;;;5051672;28;20660;-55
2023/12/22 04:31:19;;;;;;;2.50;0.60;;;8.40;99.90;;;;;;5051413;28;20281;-55
2023/12/22 04:33:45;;;;;;;3.17;0.90;;;8.00;99.90;;;;;;5051298;28;20248;-54
2023/12/22 04:36:12;;;;;;;2.63;0.77;;;7.80;99.90;;;;;;5051682;28;20787;-54
2023/12/22 04:38:41;;;;;;;2.00;1.13;;;7.70;99.90;;;;;;5035264;28;20202;-54
2023/12/22 04:41:07;;;;;;;2.17;0.80;;;7.70;99.90;;;;;;5051451;28;20202;-54
2023/12/22 04:43:34;;;;;;;2.90;0.80;;;7.60;99.90;;;;;;5051282;28;20699;-55
2023/12/22 04:46:01;;;;;;;2.37;1.20;;;7.50;99.90;;;;;;5051465;28;20331;-55
2023/12/22 04:48:27;;;;;;;2.23;0.80;;;7.50;99.90;;;;;;5051206;28;20940;-55
2023/12/22 04:50:54;;;;;;;2.77;0.80;;;7.40;99.90;;;;;;5051475;28;20205;-54
2023/12/22 04:53:20;;;;;;;2.80;1.17;;;7.40;99.90;;;;;;5051100;28;20243;-55
2023/12/22 04:55:48;;;;;;;3.50;0.93;;;7.50;99.90;;;;;;5051248;28;20210;-54
2023/12/22 04:58:15;;;;;;;4.63;1.30;;;7.50;99.90;;;;;;5050129;28;20578;-55
2023/12/22 05:00:42;;;;;;;5.60;1.50;;;7.60;99.90;;;;;;5051023;28;20679;-54
2023/12/22 05:03:08;;;;;;;6.17;1.50;;;7.80;99.90;;;;;;5050903;28;20201;-54
2023/12/22 05:05:35;;;;;;;6.07;2.13;;;7.90;99.90;;;;;;5051160;28;20220;-54
2023/12/22 05:08:02;;;;;;;5.07;1.63;;;8.10;99.90;;;;;;5051170;28;20198;-55
2023/12/22 05:10:29;;;;;;;3.67;1.27;;;8.10;99.90;;;;;;5050802;28;20833;-55
2023/12/22 05:12:57;;;;;;;4.90;1.80;;;8.20;99.90;;;;;;5050496;28;20248;-54
2023/12/22 05:15:23;;;;;;;6.40;2.17;;;8.30;99.90;;;;;;5050393;28;20205;-54
2023/12/22 05:17:50;;;;;;;3.20;1.33;;;8.30;99.90;;;;;;5050819;28;20202;-53
2023/12/22 05:20:17;;;;;;;4.33;1.17;;;8.50;99.90;;;;;;5051009;28;20558;-54
2023/12/22 05:22:43;;;;;;;5.53;1.10;;;8.50;99.90;;;;;;5051043;28;20228;-55
2023/12/22 05:25:10;;;;;;;4.40;1.43;;;8.60;99.90;;;;;;5050968;28;20236;-53
2023/12/22 05:27:37;;;;;;;4.30;1.20;;;8.60;99.90;;;;;;5050798;28;20202;-55
2023/12/22 05:30:07;;;;;;;2.77;1.30;;;8.70;99.90;;;;;;5050427;28;20224;-55
2023/12/22 05:32:33;;;;;;;5.97;1.70;;;8.70;99.90;;;;;;5050940;28;20252;-55
2023/12/22 05:35:00;;;;;;;3.70;1.70;;;8.70;99.90;;;;;;5050925;28;20241;-55
2023/12/22 05:37:27;;;;;;;5.63;1.50;;;8.70;99.90;;;;;;5050716;28;20206;-54
2023/12/22 05:39:53;;;;;;;5.47;1.50;;;8.80;99.90;;;;;;5050699;28;20194;-55
2023/12/22 05:42:21;;;;;;;7.63;1.73;;;8.80;99.90;;;;;;5050304;28;20675;-55
2023/12/22 05:44:49;;;;;;;9.17;1.70;;;8.80;99.90;;;;;;5050641;28;20295;-55
2023/12/22 05:47:17;;;;;;;6.13;2.33;;;8.90;99.90;;;;;;5050342;28;20206;-55
2023/12/22 05:49:45;;;;;;;6.73;1.73;;;9.00;99.90;;;;;;5050267;28;20228;-55
2023/12/22 05:52:13;;;;;;;9.53;1.97;;;9.00;99.90;;;;;;5050689;28;20579;-54
2023/12/22 05:54:39;;;;;;;5.90;1.83;;;9.10;99.90;;;;;;5050546;28;20232;-55
2023/12/22 05:57:07;;;;;;;6.57;1.80;;;9.10;99.90;;;;;;5051007;28;20267;-55
2023/12/22 05:59:34;;;;;;;7.00;1.63;;;9.10;99.90;;;;;;5050745;28;20236;-55
2023/12/22 06:02:01;;;;;;;6.73;2.20;;;9.10;99.90;;;;;;5050368;28;20210;-55
2023/12/22 06:04:29;;;;;;;9.57;2.13;;;9.10;99.90;;;;;;5050285;28;20249;-55
2023/12/22 06:06:56;;;;;;;7.80;2.10;;;9.20;99.90;;;;;;5050437;28;20564;-54
2023/12/22 06:09:22;;;;;;;9.47;2.30;;;9.20;99.90;;;;;;5050677;28;20222;-54
2023/12/22 06:11:49;;;;;;;10.03;2.00;;;9.20;99.90;;;;;;5053884;28;20747;-54
2023/12/22 06:14:16;;;;;;;7.73;1.90;;;9.20;99.90;;;;;;5053881;28;20229;-54
2023/12/22 06:16:42;;;;;;;8.70;2.20;;;9.20;99.90;;;;;;5054260;28;20267;-55
2023/12/22 06:19:10;;;;;;;7.47;1.93;;;9.20;99.90;;;;;;5054164;28;20205;-54
2023/12/22 06:21:40;;;;;;;6.17;2.20;;;9.20;99.90;;;;;;5053883;28;20651;-55
2023/12/22 06:24:07;;;;;;;6.83;1.77;;;9.20;99.90;;;;;;5053884;28;20229;-55
2023/12/22 06:26:34;;;;;;;7.57;2.00;;;9.20;99.90;;;;;;5053928;28;20825;-55
2023/12/22 06:29:01;;;;;;;8.13;2.10;;;9.20;99.90;;;;;;5054103;28;20221;-55
2023/12/22 06:31:27;;;;;;;8.47;2.33;;;9.20;99.90;;;;;;5053776;28;20285;-53
2023/12/22 06:33:54;;;;;;;7.83;1.70;;;9.20;99.90;;;;;;5054084;28;20703;-55
2023/12/22 06:36:22;;;;;;;9.47;2.30;;;9.30;99.90;;;;;;5053789;28;20274;-54
2023/12/22 06:38:50;;;;;;;5.83;1.70;;;9.30;99.90;;;;;;5053767;28;20201;-54
2023/12/22 06:41:21;;;;;;;6.73;2.00;;;9.30;99.90;;;;;;5053680;28;20635;-54
2023/12/22 06:43:48;;;;;;;10.50;3.27;;;9.40;99.90;;;;;;5053575;28;20221;-55
2023/12/22 06:46:18;;;;;;;13.60;3.30;;;9.30;99.90;;;;;;5053770;28;20202;-55
2023/12/22 06:48:44;;;;;;;10.47;2.53;;;9.40;99.90;;;;;;5037722;28;20198;-54
2023/12/22 06:51:18;;;;;;;9.57;2.00;;;9.40;99.90;;;;;;5053385;28;20210;-55
2023/12/22 06:53:45;;;;;;;4.77;1.63;;;9.30;99.90;;;;;;5037900;28;20312;-55
2023/12/22 06:56:18;;;;;;;8.20;1.70;;;9.30;99.90;;;;;;5053570;28;20202;-53
2023/12/22 06:58:46;;;;;;;8.13;2.57;;;9.40;99.90;;;;;;5037731;28;20209;-54
2023/12/22 07:01:13;;;;;;;8.73;2.03;;;9.40;99.90;;;;;;5053181;28;20287;-55
2023/12/22 07:03:39;;;;;;;6.40;2.20;;;9.40;99.90;;;;;;5052884;28;20232;-55
2023/12/22 07:06:06;;;;;;;6.60;2.03;;;9.40;99.90;;;;;;5053301;28;20201;-54
2023/12/22 07:08:34;;;;;;;7.77;2.33;;;9.40;99.90;;;;;;5052803;28;20214;-55
2023/12/22 07:11:00;;;;;;;7.57;2.87;;;9.50;99.90;;;;;;5052724;28;20243;-54
2023/12/22 07:13:28;;;;;;;8.23;2.70;;;9.40;99.90;;;;;;5052611;28;20280;-55
2023/12/22 07:15:55;;;;;;;10.47;2.23;;;9.50;99.90;;;;;;5053117;28;20206;-55
2023/12/22 07:18:22;;;;;;;7.77;1.87;;;9.40;99.90;;;;;;5052843;28;20243;-54
2023/12/22 07:20:48;;;;;;;7.07;2.03;;;9.40;99.90;;;;;;5052559;28;20194;-55
2023/12/22 07:23:15;;;;;;;8.70;1.73;;;9.50;99.90;;;;;;5052724;28;20225;-55
2023/12/22 07:25:42;;;;;;;6.83;1.77;;;9.50;99.90;;;;;;5052902;28;20267;-55
2023/12/22 07:28:09;;;;;;;6.77;1.73;;;9.50;99.90;;;;;;5053078;28;20271;-54
2023/12/22 07:30:37;;;;;;;8.50;2.20;;;9.50;99.90;;;;;;5052463;28;20221;-55
2023/12/22 07:33:04;;;;;;;10.50;2.33;;;9.50;99.90;;;;;;5052600;28;20693;-56
2023/12/22 07:35:31;;;;;;;6.93;1.93;;;9.60;99.90;;;;;;5052459;28;20686;-56
2023/12/22 07:37:57;;;;;;;11.17;2.23;;;9.60;99.90;;;;;;5052426;28;20546;-56
2023/12/22 07:40:24;;;;;;;7.37;2.40;;;9.60;99.90;;;;;;5052530;28;20248;-55
2023/12/22 07:42:51;;;;;;;8.07;2.27;;;9.70;99.90;;;;;;5052426;28;20201;-56
2023/12/22 07:45:18;;;;;;;10.43;3.40;;;9.70;99.90;;;;;;5052311;28;20251;-57
2023/12/22 07:47:46;;;;;;;5.67;2.17;;;9.70;99.90;;;;;;5036198;28;20336;-55
2023/12/22 07:50:13;;;;;;;6.43;2.30;;;9.80;99.90;;;;;;5052596;28;20228;-55
2023/12/22 07:52:39;;;;;;;8.43;2.43;;;9.80;99.90;;;;;;5052370;28;20221;-55
2023/12/22 07:55:08;;;;;;;6.83;3.20;;;9.80;99.90;;;;;;5052410;28;20225;-54
2023/12/22 07:57:34;;;;;;;7.80;2.40;;;9.80;99.90;;;;;;5052176;28;20206;-54
2023/12/22 08:00:01;;;;;;;8.73;2.13;;;9.80;99.90;;;;;;5051834;28;20606;-55
2023/12/22 08:02:28;;;;;;;6.83;2.07;;;9.70;99.90;;;;;;5051712;28;20202;-54
2023/12/22 08:04:56;;;;;;;9.93;2.27;;;9.70;99.90;;;;;;5051889;28;20225;-54
2023/12/22 08:07:23;;;;;;;7.70;2.07;;;9.80;99.90;;;;;;5051959;28;20694;-54
2023/12/22 08:09:50;;;;;;;4.83;1.73;;;9.90;99.90;;;;;;5051834;28;20218;-54
2023/12/22 08:12:16;;;;;;;7.47;2.37;;;9.80;99.90;;;;;;5051883;28;20236;-54
2023/12/22 08:14:43;;;;;;;8.60;2.20;;;9.80;99.90;;;;;;5051861;28;20225;-54
2023/12/22 08:17:09;;;;;;;8.30;2.00;;;9.80;99.90;;;;;;5052175;28;20209;-56
2023/12/22 08:19:37;;;;;;;6.73;1.70;;;9.70;99.90;;;;;;5051495;28;20688;-54
2023/12/22 08:22:05;;;;;;;11.47;5.53;;;9.60;99.90;;;;;;5051714;28;20198;-55
2023/12/22 08:24:32;;;;;;;3.93;1.47;;;9.50;99.90;;;;;;5051665;28;20256;-55
2023/12/22 08:26:59;;;;;;;3.07;1.23;;;9.30;99.90;;;;;;5051618;28;20208;-55
2023/12/22 08:29:25;;;;;;;4.67;1.37;;;9.00;99.90;;;;;;5051259;28;20213;-54
2023/12/22 08:31:52;;;;;;;5.47;1.70;;;8.90;99.90;;;;;;5051398;28;20201;-54
2023/12/22 08:34:19;;;;;;;3.93;1.50;;;8.90;99.90;;;;;;5051389;28;20221;-54
2023/12/22 08:36:45;;;;;;;18.23;11.73;;;9.00;99.90;;;;;;5051659;28;20201;-54
2023/12/22 08:39:13;;;;;;;5.20;2.10;;;9.00;99.90;;;;;;5051563;28;20209;-55
2023/12/22 08:41:40;;;;;;;9.10;2.07;;;9.00;99.90;;;;;;5051060;28;20202;-56
2023/12/22 08:44:07;;;;;;;7.10;2.00;;;9.00;99.90;;;;;;5051460;28;20222;-53
2023/12/22 08:46:35;;;;;;;15.23;2.00;;;9.10;99.90;;;;;;5050944;28;20640;-54
2023/12/22 08:49:02;;;;;;;8.00;1.90;;;9.20;99.90;;;;;;5051681;28;20217;-53
2023/12/22 08:51:29;;;;;;;7.73;2.13;;;9.20;99.90;;;;;;5051181;28;20283;-54
2023/12/22 08:53:56;;;;;;;8.83;2.33;;;9.20;99.90;;;;;;5051029;28;20811;-54
2023/12/22 08:56:24;;;;;;;6.60;1.60;;;9.20;99.90;;;;;;5050961;28;20206;-54
2023/12/22 08:58:54;;;;;;;12.77;2.10;;;9.20;99.90;;;;;;5051381;28;20218;-54
2023/12/22 09:01:22;;;;;;;6.43;2.10;;;9.30;99.90;;;;;;5051317;28;20561;-55
2023/12/22 09:03:49;;;;;;;4.10;1.80;;;9.20;99.90;;;;;;5051281;28;20226;-55
2023/12/22 09:06:16;;;;;;;9.67;2.67;;;9.20;99.90;;;;;;5051243;28;20205;-55
2023/12/22 09:08:43;;;;;;;7.30;2.27;;;9.10;99.90;;;;;;5051110;28;20288;-54
2023/12/22 09:11:12;;;;;;;8.60;2.53;;;9.20;99.90;;;;;;5051189;28;20221;-58
2023/12/22 09:13:41;;;;;;;9.50;2.57;;;9.10;99.90;;;;;;5050885;28;20785;-53
2023/12/22 09:16:08;;;;;;;13.93;2.90;;;9.20;99.90;;;;;;5051234;28;20208;-52
2023/12/22 09:18:35;;;;;;;10.87;2.90;;;9.20;99.90;;;;;;5050946;28;20737;-53
2023/12/22 09:21:02;;;;;;;11.87;3.73;;;9.20;99.90;;;;;;5050829;28;20212;-53
2023/12/22 09:23:29;;;;;;;34.40;15.23;;;9.30;99.90;;;;;;5050830;28;20314;-54
2023/12/22 09:25:56;;;;;;;22.40;2.83;;;9.40;99.90;;;;;;5050932;28;20205;-53
2023/12/22 09:28:22;;;;;;;21.67;3.87;;;9.20;99.90;;;;;;5051002;28;20289;-52
2023/12/22 09:30:51;;;;;;;15.07;2.90;;;9.20;99.90;;;;;;5050672;28;20596;-54
2023/12/22 09:33:17;;;;;;;14.67;3.30;;;9.10;99.90;;;;;;5050961;28;20255;-53
2023/12/22 09:35:44;;;;;;;16.90;3.20;;;9.10;99.90;;;;;;5050508;28;20201;-53
2023/12/22 09:38:12;;;;;;;9.83;2.97;;;9.10;99.90;;;;;;5049386;28;20201;-55
2023/12/22 09:40:39;;;;;;;14.60;3.07;;;9.20;99.90;;;;;;5049914;28;20197;-53
2023/12/22 09:43:07;;;;;;;10.37;2.77;;;9.20;99.90;;;;;;5050584;28;20201;-53
2023/12/22 09:45:34;;;;;;;10.97;3.17;;;9.20;99.90;;;;;;5052997;28;20212;-56
2023/12/22 09:48:04;;;;;;;10.33;2.97;;;9.20;99.90;;;;;;5054856;28;20372;-56
2023/12/22 09:50:31;;;;;;;13.23;3.27;;;9.20;99.90;;;;;;5054223;28;20271;-56
2023/12/22 09:52:58;;;;;;;10.27;3.23;;;9.30;99.90;;;;;;5052373;28;20252;-57
2023/12/22 09:55:26;;;;;;;16.73;3.37;;;9.40;99.90;;;;;;5030149;28;20680;-55
2023/12/22 09:57:55;;;;;;;13.20;2.47;;;9.40;99.90;;;;;;5034185;28;20594;-56
2023/12/22 10:00:23;;;;;;;19.93;3.87;;;9.40;99.90;;;;;;5035700;28;20199;-56
2023/12/22 10:02:50;;;;;;;17.70;3.93;;;9.50;99.90;;;;;;5026227;28;20211;-58
2023/12/22 10:05:18;;;;;;;9.77;2.77;;;9.60;99.90;;;;;;5034576;28;20216;-57
2023/12/22 10:07:46;;;;;;;15.33;4.37;;;9.60;99.90;;;;;;5034200;28;20225;-57
2023/12/22 10:10:13;;;;;;;11.77;2.77;;;9.70;99.90;;;;;;5034099;28;20234;-56
2023/12/22 10:12:42;;;;;;;20.23;3.60;;;9.90;99.90;;;;;;5034074;28;20245;-57
2023/12/22 10:15:12;;;;;;;10.67;3.37;;;9.90;99.90;;;;;;5074405;22;20685;-62
2023/12/22 10:17:39;;;;;;;13.93;4.03;;;10.00;99.90;;;;;;5052264;28;20221;-63
2023/12/22 10:20:08;;;;;;;55.90;6.03;;;10.00;99.90;;;;;;5048421;28;20209;-61
2023/12/22 10:22:36;;;;;;;15.03;3.47;;;10.10;99.90;;;;;;5054070;28;20264;-62
2023/12/22 10:25:02;;;;;;;9.60;3.10;;;10.30;99.90;;;;;;5040623;28;20257;-61
2023/12/22 10:27:29;;;;;;;14.63;3.17;;;10.30;99.90;;;;;;5034102;28;20691;-63
2023/12/22 10:29:57;;;;;;;15.50;2.97;;;10.40;99.90;;;;;;5041863;28;20660;-63
2023/12/22 10:32:24;;;;;;;14.73;3.87;;;10.50;99.90;;;;;;5034126;28;20210;-59
2023/12/22 10:34:52;;;;;;;14.43;3.53;;;10.50;99.90;;;;;;5043129;28;20233;-63
2023/12/22 10:37:21;;;;;;;30.60;3.73;;;10.50;99.90;;;;;;5053703;28;20229;-62
2023/12/22 10:39:53;;;;;;;11.73;2.90;;;10.50;99.90;;;;;;5037362;28;20577;-62
2023/12/22 10:42:20;;;;;;;9.57;2.73;;;10.50;99.90;;;;;;5038184;28;20668;-63
2023/12/22 10:44:47;;;;;;;11.47;2.50;;;10.50;99.90;;;;;;5036671;28;20648;-62
2023/12/22 10:47:14;;;;;;;54.73;6.07;;;10.50;99.90;;;;;;5038945;28;20202;-62
2023/12/22 10:49:41;;;;;;;16.43;3.43;;;10.50;99.90;;;;;;5042139;28;20214;-63
2023/12/22 10:52:15;;;;;;;18.80;3.40;;;10.40;99.90;;;;;;5033559;28;20757;-61
2023/12/22 10:54:42;;;;;;;13.27;5.27;;;10.40;99.90;;;;;;5033669;28;20237;-62
2023/12/22 10:57:11;;;;;;;11.17;2.90;;;10.40;99.90;;;;;;5033453;28;20210;-64
2023/12/22 10:59:43;;;;;;;13.07;2.70;;;10.40;99.90;;;;;;5043040;28;20260;-61
2023/12/22 11:02:15;;;;;;;12.40;3.03;;;10.40;99.90;;;;;;5053720;28;20616;-62
2023/12/22 11:04:47;;;;;;;10.43;2.87;;;10.50;99.90;;;;;;5063943;28;20230;-58
2023/12/22 11:07:15;;;;;;;10.23;2.80;;;10.40;99.90;;;;;;5065566;28;20205;-59
2023/12/22 11:09:45;;;;;;;14.53;2.63;;;10.40;99.90;;;;;;5062908;28;20223;-59
2023/12/22 11:12:14;;;;;;;10.73;2.50;;;10.30;99.90;;;;;;5062122;28;20226;-59
2023/12/22 11:14:41;;;;;;;8.10;2.40;;;10.40;99.90;;;;;;5063187;28;20252;-59
2023/12/22 11:17:09;;;;;;;8.80;1.93;;;10.40;99.90;;;;;;5065087;28;20620;-59
2023/12/22 11:19:37;;;;;;;7.47;1.93;;;10.50;99.90;;;;;;5064136;28;20208;-58
2023/12/22 11:22:07;;;;;;;11.33;2.60;;;10.50;99.90;;;;;;5061534;28;20197;-58
2023/12/22 11:24:35;;;;;;;11.60;3.47;;;10.50;99.90;;;;;;5062255;28;20665;-58
2023/12/22 11:27:03;;;;;;;6.93;1.70;;;10.50;99.90;;;;;;5065163;28;20201;-59
2023/12/22 11:29:32;;;;;;;5.73;1.60;;;10.50;99.90;;;;;;5064455;28;20205;-59
2023/12/22 11:32:01;;;;;;;5.43;1.47;;;10.40;99.90;;;;;;5061449;28;20213;-59
2023/12/22 11:34:30;;;;;;;15.73;2.03;;;10.40;99.90;;;;;;5061658;28;20788;-59
2023/12/22 11:36:59;;;;;;;4.30;1.10;;;10.40;99.90;;;;;;5065172;28;20216;-58
2023/12/22 11:39:26;;;;;;;3.60;1.30;;;10.40;99.90;;;;;;5065029;28;20247;-58
2023/12/22 11:41:54;;;;;;;2.60;1.10;;;10.50;99.90;;;;;;5060948;28;20698;-59
2023/12/22 11:44:21;;;;;;;4.13;1.70;;;10.60;99.90;;;;;;5061151;28;20646;-59
2023/12/22 11:46:49;;;;;;;4.80;1.70;;;10.50;99.90;;;;;;5063945;28;20300;-61
2023/12/22 11:49:16;;;;;;;5.70;2.47;;;10.50;99.90;;;;;;5064587;28;20209;-59
2023/12/22 11:51:42;;;;;;;3.23;1.40;;;10.50;99.90;;;;;;5061796;28;20228;-59
2023/12/22 11:54:42;;;;;;;9.67;5.13;;;10.50;99.90;;;;;;5060899;28;20286;-60
2023/12/22 11:57:30;;;;;;;5.20;1.13;;;10.50;99.90;;;;;;5055349;28;20568;-60
2023/12/22 11:59:58;;;;;;;1.53;1.00;;;10.50;99.90;;;;;;5053558;28;20212;-59
2023/12/22 12:02:27;;;;;;;4.17;1.20;;;10.50;99.90;;;;;;5061113;28;20248;-58
2023/12/22 12:04:54;;;;;;;4.27;1.20;;;10.50;99.90;;;;;;5052912;28;20328;-59
2023/12/22 12:07:41;;;;;;;15.07;1.50;;;10.50;99.90;;;;;;5060247;28;20667;-58
2023/12/22 12:10:09;;;;;;;4.27;1.13;;;10.50;99.90;;;;;;5054583;28;20304;-59
2023/12/22 12:12:36;;;;;;;2.27;1.00;;;10.40;99.90;;;;;;5061974;28;20408;-59
2023/12/22 12:15:09;;;;;;;9.00;1.73;;;10.40;99.90;;;;;;5064231;28;20236;-59
2023/12/22 12:17:41;;;;;;;5.73;1.07;;;10.30;99.90;;;;;;5062876;28;20204;-59
2023/12/22 12:20:10;;;;;;;4.17;1.03;;;10.30;99.90;;;;;;5060493;28;20206;-59
2023/12/22 12:22:38;;;;;;;8.23;2.43;;;10.30;99.90;;;;;;5061614;28;20565;-58
2023/12/22 12:25:09;;;;;;;1.63;0.80;;;10.40;99.90;;;;;;5064150;28;20274;-59
2023/12/22 12:27:36;;;;;;;10.30;1.30;;;10.40;99.90;;;;;;5062824;28;20255;-59
2023/12/22 12:30:09;;;;;;;2.77;0.97;;;10.40;99.90;;;;;;5060106;28;20201;-59
2023/12/22 12:32:37;;;;;;;3.90;1.00;;;10.50;99.90;;;;;;5061309;28;20253;-59
2023/12/22 12:35:05;;;;;;;2.17;0.80;;;10.50;99.90;;;;;;5063780;28;20278;-59
2023/12/22 12:37:32;;;;;;;1.77;0.63;;;10.50;99.90;;;;;;5063205;28;20209;-59
2023/12/22 12:40:00;;;;;;;5.03;1.00;;;10.40;99.90;;;;;;5059780;28;20259;-58
2023/12/22 12:42:30;;;;;;;3.40;1.00;;;10.50;99.90;;;;;;5060446;28;20730;-58
2023/12/22 12:44:57;;;;;;;9.67;1.83;;;10.50;99.90;;;;;;5053064;28;20249;-60
2023/12/22 12:47:24;;;;;;;3.10;0.73;;;10.60;99.90;;;;;;5060266;28;20271;-59
2023/12/22 12:49:58;;;;;;;3.03;1.03;;;10.60;99.90;;;;;;5062951;28;20288;-60
2023/12/22 12:52:26;;;;;;;1.60;0.47;;;10.50;99.90;;;;;;5064105;28;20269;-61
2023/12/22 12:54:53;;;;;;;2.83;0.70;;;10.50;99.90;;;;;;5051792;28;20710;-60